sensor_id;sensor_type;location;lat;lon;timestamp;temperature;humidity
2945;DHT22;1482;51.398;7.128;2022-10-26T00:00:47;12.90;99.90
2945;DHT22;1482;51.398;7.128;2022-10-26T00:03:13;13.00;99.90
2945;DHT22;1482;51.398;7.128;2022-10-26T00:05:39;13.00;99.90
2945;DHT22;1482;51.398;7.128;2022-10-26T00:08:05;13.00;99.90
2945;DHT22;1482;51.398;7.128;2022-10-26T00:10:33;13.00;99.90
2945;DHT22;1482;51.398;7.128;2022-10-26T00:12:59;13.10;99.90
2945;DHT22;1482;51.398;7.128;2022-10-26T00:15:24;13.20;99.90
2945;DHT22;1482;51.398;7.128;2022-10-26T00:17:50;13.20;99.90
2945;DHT22;1482;51.398;7.128;2022-10-26T00:20:16;13.30;99.90
2945;DHT22;1482;51.398;7.128;2022-10-26T00:22:41;13.30;99.90
2945;DHT22;1482;51.398;7.128;2022-10-26T00:25:08;13.30;99.90
2945;DHT22;1482;51.398;7.128;2022-10-26T00:27:33;13.40;99.90
2945;DHT22;1482;51.398;7.128;2022-10-26T00:30:00;13.40;99.90
2945;DHT22;1482;51.398;7.128;2022-10-26T00:32:26;13.40;99.90
2945;DHT22;1482;51.398;7.128;2022-10-26T00:34:51;13.50;99.90
2945;DHT22;1482;51.398;7.128;2022-10-26T00:37:17;13.50;99.90
2945;DHT22;1482;51.398;7.128;2022-10-26T00:39:43;13.50;99.90
2945;DHT22;1482;51.398;7.128;2022-10-26T00:42:14;13.60;99.90
2945;DHT22;1482;51.398;7.128;2022-10-26T00:47:22;13.80;99.90
2945;DHT22;1482;51.398;7.128;2022-10-26T00:49:50;13.80;99.90
2945;DHT22;1482;51.398;7.128;2022-10-26T00:52:19;13.80;99.90
2945;DHT22;1482;51.398;7.128;2022-10-26T00:54:45;13.80;99.90
2945;DHT22;1482;51.398;7.128;2022-10-26T00:57:13;13.80;99.90
2945;DHT22;1482;51.398;7.128;2022-10-26T00:59:40;13.80;99.90
2945;DHT22;1482;51.398;7.128;2022-10-26T01:02:06;13.90;99.90
2945;DHT22;1482;51.398;7.128;2022-10-26T01:04:32;13.90;99.90
2945;DHT22;1482;51.398;7.128;2022-10-26T01:06:59;13.90;99.90
2945;DHT22;1482;51.398;7.128;2022-10-26T01:09:25;14.00;99.90
2945;DHT22;1482;51.398;7.128;2022-10-26T01:11:51;14.00;99.90
2945;DHT22;1482;51.398;7.128;2022-10-26T01:14:17;14.00;99.90
2945;DHT22;1482;51.398;7.128;2022-10-26T01:25:14;14.10;99.90
2945;DHT22;1482;51.398;7.128;2022-10-26T01:27:48;14.10;99.90
2945;DHT22;1482;51.398;7.128;2022-10-26T01:30:17;14.20;99.90
2945;DHT22;1482;51.398;7.128;2022-10-26T01:41:14;14.20;97.50
2945;DHT22;1482;51.398;7.128;2022-10-26T01:43:47;14.20;95.50
2945;DHT22;1482;51.398;7.128;2022-10-26T01:46:14;14.20;95.10
2945;DHT22;1482;51.398;7.128;2022-10-26T01:48:42;14.20;94.30
2945;DHT22;1482;51.398;7.128;2022-10-26T01:51:10;14.30;93.10
2945;DHT22;1482;51.398;7.128;2022-10-26T01:53:43;14.30;87.70
2945;DHT22;1482;51.398;7.128;2022-10-26T01:56:13;14.20;91.10
2945;DHT22;1482;51.398;7.128;2022-10-26T02:12:44;14.40;90.80
2945;DHT22;1482;51.398;7.128;2022-10-26T02:15:25;14.40;93.60
2945;DHT22;1482;51.398;7.128;2022-10-26T02:18:03;14.40;77.70
2945;DHT22;1482;51.398;7.128;2022-10-26T02:20:45;14.40;83.00
2945;DHT22;1482;51.398;7.128;2022-10-26T02:23:12;14.50;81.60
2945;DHT22;1482;51.398;7.128;2022-10-26T02:25:45;14.50;82.00
2945;DHT22;1482;51.398;7.128;2022-10-26T02:28:15;14.50;75.40
2945;DHT22;1482;51.398;7.128;2022-10-26T02:30:43;14.60;72.80
2945;DHT22;1482;51.398;7.128;2022-10-26T02:33:11;14.60;69.70
2945;DHT22;1482;51.398;7.128;2022-10-26T02:35:39;14.60;65.50
2945;DHT22;1482;51.398;7.128;2022-10-26T02:38:09;14.60;65.80
2945;DHT22;1482;51.398;7.128;2022-10-26T02:40:36;14.60;63.10
2945;DHT22;1482;51.398;7.128;2022-10-26T02:43:07;14.70;60.60
2945;DHT22;1482;51.398;7.128;2022-10-26T02:45:45;14.60;58.60
2945;DHT22;1482;51.398;7.128;2022-10-26T02:48:13;14.70;58.50
2945;DHT22;1482;51.398;7.128;2022-10-26T02:50:59;14.60;59.70
2945;DHT22;1482;51.398;7.128;2022-10-26T02:56:21;14.70;60.20
2945;DHT22;1482;51.398;7.128;2022-10-26T02:58:51;14.70;59.40
2945;DHT22;1482;51.398;7.128;2022-10-26T03:01:18;14.80;53.90
2945;DHT22;1482;51.398;7.128;2022-10-26T03:03:45;14.70;52.50
2945;DHT22;1482;51.398;7.128;2022-10-26T03:06:10;14.80;53.70
2945;DHT22;1482;51.398;7.128;2022-10-26T03:08:36;14.70;53.00
2945;DHT22;1482;51.398;7.128;2022-10-26T03:11:01;14.70;54.10
2945;DHT22;1482;51.398;7.128;2022-10-26T03:13:27;14.80;54.40
2945;DHT22;1482;51.398;7.128;2022-10-26T03:15:55;14.80;52.10
2945;DHT22;1482;51.398;7.128;2022-10-26T03:18:24;14.90;49.10
2945;DHT22;1482;51.398;7.128;2022-10-26T03:20:49;14.90;49.70
2945;DHT22;1482;51.398;7.128;2022-10-26T03:23:15;14.80;52.30
2945;DHT22;1482;51.398;7.128;2022-10-26T03:25:40;14.80;58.90
2945;DHT22;1482;51.398;7.128;2022-10-26T03:28:06;14.90;62.50
2945;DHT22;1482;51.398;7.128;2022-10-26T03:30:32;14.90;60.70
2945;DHT22;1482;51.398;7.128;2022-10-26T03:32:57;14.90;58.10
2945;DHT22;1482;51.398;7.128;2022-10-26T03:35:23;14.90;56.70
2945;DHT22;1482;51.398;7.128;2022-10-26T03:37:48;14.90;52.90
2945;DHT22;1482;51.398;7.128;2022-10-26T03:40:14;15.00;50.40
2945;DHT22;1482;51.398;7.128;2022-10-26T03:42:40;15.10;47.20
2945;DHT22;1482;51.398;7.128;2022-10-26T03:45:07;15.10;43.50
2945;DHT22;1482;51.398;7.128;2022-10-26T03:47:33;15.10;40.00
2945;DHT22;1482;51.398;7.128;2022-10-26T03:49:58;15.10;35.30
2945;DHT22;1482;51.398;7.128;2022-10-26T03:52:24;15.10;31.70
2945;DHT22;1482;51.398;7.128;2022-10-26T03:54:51;15.10;31.70
2945;DHT22;1482;51.398;7.128;2022-10-26T03:57:17;15.10;28.70
2945;DHT22;1482;51.398;7.128;2022-10-26T03:59:42;15.20;27.00
2945;DHT22;1482;51.398;7.128;2022-10-26T04:02:08;15.30;25.50
2945;DHT22;1482;51.398;7.128;2022-10-26T04:04:34;15.30;24.20
2945;DHT22;1482;51.398;7.128;2022-10-26T04:06:59;15.30;21.10
2945;DHT22;1482;51.398;7.128;2022-10-26T04:09:25;15.40;18.50
2945;DHT22;1482;51.398;7.128;2022-10-26T04:11:50;15.40;17.00
2945;DHT22;1482;51.398;7.128;2022-10-26T04:14:16;15.50;12.90
2945;DHT22;1482;51.398;7.128;2022-10-26T04:16:41;15.50;12.30
2945;DHT22;1482;51.398;7.128;2022-10-26T04:19:08;15.50;11.30
2945;DHT22;1482;51.398;7.128;2022-10-26T04:21:43;15.50;13.30
2945;DHT22;1482;51.398;7.128;2022-10-26T04:24:09;15.50;11.40
2945;DHT22;1482;51.398;7.128;2022-10-26T04:26:36;15.40;8.90
2945;DHT22;1482;51.398;7.128;2022-10-26T04:29:01;15.40;8.10
2945;DHT22;1482;51.398;7.128;2022-10-26T04:31:31;15.50;6.00
2945;DHT22;1482;51.398;7.128;2022-10-26T04:33:57;15.40;6.00
2945;DHT22;1482;51.398;7.128;2022-10-26T04:36:22;15.50;5.60
2945;DHT22;1482;51.398;7.128;2022-10-26T04:38:48;15.40;5.80
2945;DHT22;1482;51.398;7.128;2022-10-26T04:41:14;15.40;6.70
2945;DHT22;1482;51.398;7.128;2022-10-26T04:43:39;15.50;5.60
2945;DHT22;1482;51.398;7.128;2022-10-26T04:46:05;15.50;7.10
2945;DHT22;1482;51.398;7.128;2022-10-26T04:48:30;15.50;4.90
2945;DHT22;1482;51.398;7.128;2022-10-26T04:50:59;15.50;3.90
2945;DHT22;1482;51.398;7.128;2022-10-26T04:53:25;15.50;4.00
2945;DHT22;1482;51.398;7.128;2022-10-26T04:55:58;15.50;4.70
2945;DHT22;1482;51.398;7.128;2022-10-26T04:58:23;15.50;5.40
2945;DHT22;1482;51.398;7.128;2022-10-26T05:00:49;15.50;2.50
2945;DHT22;1482;51.398;7.128;2022-10-26T05:03:14;15.50;2.60
2945;DHT22;1482;51.398;7.128;2022-10-26T05:05:40;15.50;2.20
2945;DHT22;1482;51.398;7.128;2022-10-26T05:08:06;15.50;1.40
2945;DHT22;1482;51.398;7.128;2022-10-26T05:10:32;15.50;1.00
2945;DHT22;1482;51.398;7.128;2022-10-26T05:12:58;15.50;1.20
2945;DHT22;1482;51.398;7.128;2022-10-26T05:15:25;15.50;1.10
2945;DHT22;1482;51.398;7.128;2022-10-26T05:17:58;15.50;1.00
2945;DHT22;1482;51.398;7.128;2022-10-26T05:20:25;15.50;1.00
2945;DHT22;1482;51.398;7.128;2022-10-26T05:22:56;15.50;1.00
2945;DHT22;1482;51.398;7.128;2022-10-26T05:25:22;15.50;1.00
2945;DHT22;1482;51.398;7.128;2022-10-26T05:27:47;15.50;1.00
2945;DHT22;1482;51.398;7.128;2022-10-26T05:30:13;15.50;6.50
2945;DHT22;1482;51.398;7.128;2022-10-26T05:32:38;15.40;1.00
2945;DHT22;1482;51.398;7.128;2022-10-26T05:35:04;15.40;1.00
2945;DHT22;1482;51.398;7.128;2022-10-26T05:37:30;15.40;1.00
2945;DHT22;1482;51.398;7.128;2022-10-26T05:39:55;15.50;1.00
2945;DHT22;1482;51.398;7.128;2022-10-26T05:42:21;15.50;1.00
2945;DHT22;1482;51.398;7.128;2022-10-26T05:44:46;15.50;1.00
2945;DHT22;1482;51.398;7.128;2022-10-26T05:47:12;15.60;1.00
2945;DHT22;1482;51.398;7.128;2022-10-26T05:49:37;15.60;1.00
2945;DHT22;1482;51.398;7.128;2022-10-26T05:52:03;15.60;1.00
2945;DHT22;1482;51.398;7.128;2022-10-26T05:54:29;15.60;1.00
2945;DHT22;1482;51.398;7.128;2022-10-26T05:56:55;15.70;1.00
2945;DHT22;1482;51.398;7.128;2022-10-26T05:59:21;15.60;1.00
2945;DHT22;1482;51.398;7.128;2022-10-26T06:04:34;15.50;1.00
2945;DHT22;1482;51.398;7.128;2022-10-26T06:07:06;15.60;1.00
2945;DHT22;1482;51.398;7.128;2022-10-26T06:09:33;15.70;1.00
2945;DHT22;1482;51.398;7.128;2022-10-26T06:11:58;15.70;1.00
2945;DHT22;1482;51.398;7.128;2022-10-26T06:14:26;15.70;1.00
2945;DHT22;1482;51.398;7.128;2022-10-26T06:28:18;15.90;1.00
2945;DHT22;1482;51.398;7.128;2022-10-26T06:30:45;15.80;1.00
2945;DHT22;1482;51.398;7.128;2022-10-26T06:33:12;15.90;1.00
2945;DHT22;1482;51.398;7.128;2022-10-26T06:35:42;15.80;1.00
2945;DHT22;1482;51.398;7.128;2022-10-26T06:38:16;15.90;1.00
2945;DHT22;1482;51.398;7.128;2022-10-26T06:40:45;15.90;1.00
2945;DHT22;1482;51.398;7.128;2022-10-26T06:43:25;15.90;1.00
2945;DHT22;1482;51.398;7.128;2022-10-26T06:45:59;15.90;1.00
2945;DHT22;1482;51.398;7.128;2022-10-26T06:48:34;15.90;1.00
2945;DHT22;1482;51.398;7.128;2022-10-26T06:51:04;15.90;1.00
2945;DHT22;1482;51.398;7.128;2022-10-26T06:53:30;16.00;1.00
2945;DHT22;1482;51.398;7.128;2022-10-26T06:55:58;16.00;1.00
2945;DHT22;1482;51.398;7.128;2022-10-26T06:58:28;16.10;1.00
2945;DHT22;1482;51.398;7.128;2022-10-26T07:00:55;16.20;1.00
2945;DHT22;1482;51.398;7.128;2022-10-26T07:03:21;16.30;1.00
2945;DHT22;1482;51.398;7.128;2022-10-26T07:05:47;16.30;1.00
2945;DHT22;1482;51.398;7.128;2022-10-26T07:08:13;16.30;1.00
2945;DHT22;1482;51.398;7.128;2022-10-26T07:10:38;16.40;1.00
2945;DHT22;1482;51.398;7.128;2022-10-26T07:13:08;16.40;1.00
2945;DHT22;1482;51.398;7.128;2022-10-26T07:15:35;16.40;1.00
2945;DHT22;1482;51.398;7.128;2022-10-26T07:18:05;16.50;1.00
2945;DHT22;1482;51.398;7.128;2022-10-26T07:20:39;16.50;1.00
2945;DHT22;1482;51.398;7.128;2022-10-26T07:23:06;16.60;1.00
2945;DHT22;1482;51.398;7.128;2022-10-26T07:25:32;16.60;1.00
2945;DHT22;1482;51.398;7.128;2022-10-26T07:27:59;16.60;1.00
2945;DHT22;1482;51.398;7.128;2022-10-26T07:30:26;16.70;1.00
2945;DHT22;1482;51.398;7.128;2022-10-26T07:33:01;16.80;1.00
2945;DHT22;1482;51.398;7.128;2022-10-26T07:35:27;16.90;1.00
2945;DHT22;1482;51.398;7.128;2022-10-26T07:37:56;17.00;1.00
2945;DHT22;1482;51.398;7.128;2022-10-26T07:40:22;17.10;1.00
2945;DHT22;1482;51.398;7.128;2022-10-26T07:42:47;17.30;1.00
2945;DHT22;1482;51.398;7.128;2022-10-26T07:45:13;17.40;1.00
2945;DHT22;1482;51.398;7.128;2022-10-26T07:47:38;17.50;1.00
2945;DHT22;1482;51.398;7.128;2022-10-26T07:50:04;17.70;1.00
2945;DHT22;1482;51.398;7.128;2022-10-26T07:52:30;17.90;1.00
2945;DHT22;1482;51.398;7.128;2022-10-26T07:54:56;18.20;1.00
2945;DHT22;1482;51.398;7.128;2022-10-26T07:57:21;18.50;1.00
2945;DHT22;1482;51.398;7.128;2022-10-26T07:59:47;18.90;1.00
2945;DHT22;1482;51.398;7.128;2022-10-26T08:02:12;19.20;1.00
2945;DHT22;1482;51.398;7.128;2022-10-26T08:04:38;20.60;1.00
2945;DHT22;1482;51.398;7.128;2022-10-26T08:07:03;23.00;1.00
2945;DHT22;1482;51.398;7.128;2022-10-26T08:09:29;24.00;1.00
2945;DHT22;1482;51.398;7.128;2022-10-26T08:11:54;23.10;1.00
2945;DHT22;1482;51.398;7.128;2022-10-26T08:14:20;22.50;1.00
2945;DHT22;1482;51.398;7.128;2022-10-26T08:16:45;22.40;1.00
2945;DHT22;1482;51.398;7.128;2022-10-26T08:19:12;23.70;1.00
2945;DHT22;1482;51.398;7.128;2022-10-26T08:21:37;26.50;1.00
2945;DHT22;1482;51.398;7.128;2022-10-26T08:24:03;27.80;1.00
2945;DHT22;1482;51.398;7.128;2022-10-26T08:26:29;28.10;1.00
2945;DHT22;1482;51.398;7.128;2022-10-26T08:28:55;26.30;1.00
2945;DHT22;1482;51.398;7.128;2022-10-26T08:31:20;25.80;1.00
2945;DHT22;1482;51.398;7.128;2022-10-26T08:33:46;25.00;1.00
2945;DHT22;1482;51.398;7.128;2022-10-26T08:36:12;25.70;1.00
2945;DHT22;1482;51.398;7.128;2022-10-26T08:38:38;27.30;1.00
2945;DHT22;1482;51.398;7.128;2022-10-26T08:41:07;28.80;1.00
2945;DHT22;1482;51.398;7.128;2022-10-26T08:43:49;30.30;1.00
2945;DHT22;1482;51.398;7.128;2022-10-26T08:46:24;30.70;1.00
2945;DHT22;1482;51.398;7.128;2022-10-26T08:48:54;31.30;1.00
2945;DHT22;1482;51.398;7.128;2022-10-26T08:51:47;30.10;1.00
2945;DHT22;1482;51.398;7.128;2022-10-26T08:54:18;28.60;1.00
2945;DHT22;1482;51.398;7.128;2022-10-26T08:56:49;27.80;1.00
2945;DHT22;1482;51.398;7.128;2022-10-26T09:01:52;29.30;1.00
2945;DHT22;1482;51.398;7.128;2022-10-26T09:04:21;31.00;1.00
2945;DHT22;1482;51.398;7.128;2022-10-26T09:07:13;32.20;1.00
2945;DHT22;1482;51.398;7.128;2022-10-26T09:10:26;32.70;1.00
2945;DHT22;1482;51.398;7.128;2022-10-26T09:21:15;33.40;1.00
2945;DHT22;1482;51.398;7.128;2022-10-26T09:23:54;33.20;1.00
2945;DHT22;1482;51.398;7.128;2022-10-26T09:26:31;32.60;1.00
2945;DHT22;1482;51.398;7.128;2022-10-26T09:29:02;32.30;1.00
2945;DHT22;1482;51.398;7.128;2022-10-26T09:31:32;31.80;1.00
2945;DHT22;1482;51.398;7.128;2022-10-26T09:34:01;30.00;1.00
2945;DHT22;1482;51.398;7.128;2022-10-26T09:36:29;28.70;1.00
2945;DHT22;1482;51.398;7.128;2022-10-26T09:39:12;28.30;1.00
2945;DHT22;1482;51.398;7.128;2022-10-26T09:41:44;28.50;1.00
2945;DHT22;1482;51.398;7.128;2022-10-26T09:44:27;29.10;1.00
2945;DHT22;1482;51.398;7.128;2022-10-26T09:49:22;26.20;1.00
2945;DHT22;1482;51.398;7.128;2022-10-26T09:51:54;25.50;1.00
2945;DHT22;1482;51.398;7.128;2022-10-26T09:54:20;24.60;1.00
2945;DHT22;1482;51.398;7.128;2022-10-26T09:56:51;24.30;1.00
2945;DHT22;1482;51.398;7.128;2022-10-26T09:59:21;24.10;1.00
2945;DHT22;1482;51.398;7.128;2022-10-26T10:01:47;23.70;1.00
2945;DHT22;1482;51.398;7.128;2022-10-26T10:06:42;23.80;1.00
2945;DHT22;1482;51.398;7.128;2022-10-26T10:11:59;23.80;1.00
2945;DHT22;1482;51.398;7.128;2022-10-26T10:14:30;23.90;1.00
2945;DHT22;1482;51.398;7.128;2022-10-26T10:17:02;23.80;1.00
2945;DHT22;1482;51.398;7.128;2022-10-26T10:19:35;24.00;1.00
2945;DHT22;1482;51.398;7.128;2022-10-26T10:22:18;23.90;1.00
2945;DHT22;1482;51.398;7.128;2022-10-26T10:25:00;23.80;1.00
2945;DHT22;1482;51.398;7.128;2022-10-26T10:27:27;23.80;1.00
2945;DHT22;1482;51.398;7.128;2022-10-26T10:29:55;23.80;1.00
2945;DHT22;1482;51.398;7.128;2022-10-26T10:32:23;23.80;1.00
2945;DHT22;1482;51.398;7.128;2022-10-26T10:34:53;23.60;1.00
2945;DHT22;1482;51.398;7.128;2022-10-26T10:39:58;23.50;1.00
2945;DHT22;1482;51.398;7.128;2022-10-26T10:42:34;23.40;1.00
2945;DHT22;1482;51.398;7.128;2022-10-26T10:45:00;23.40;1.00
2945;DHT22;1482;51.398;7.128;2022-10-26T10:47:30;23.30;1.00
2945;DHT22;1482;51.398;7.128;2022-10-26T10:50:17;23.30;1.00
2945;DHT22;1482;51.398;7.128;2022-10-26T10:52:44;23.30;1.00
2945;DHT22;1482;51.398;7.128;2022-10-26T10:55:20;23.30;1.00
2945;DHT22;1482;51.398;7.128;2022-10-26T10:58:07;23.20;1.00
2945;DHT22;1482;51.398;7.128;2022-10-26T11:00:36;23.00;1.00
2945;DHT22;1482;51.398;7.128;2022-10-26T11:03:30;23.10;1.00
2945;DHT22;1482;51.398;7.128;2022-10-26T11:08:44;22.80;1.00
2945;DHT22;1482;51.398;7.128;2022-10-26T11:11:12;22.60;1.00
2945;DHT22;1482;51.398;7.128;2022-10-26T11:14:09;22.60;1.00
2945;DHT22;1482;51.398;7.128;2022-10-26T11:16:54;22.60;1.00
2945;DHT22;1482;51.398;7.128;2022-10-26T11:19:37;22.50;1.00
2945;DHT22;1482;51.398;7.128;2022-10-26T11:22:19;22.40;1.00
2945;DHT22;1482;51.398;7.128;2022-10-26T11:24:50;22.40;1.00
2945;DHT22;1482;51.398;7.128;2022-10-26T11:27:45;22.50;1.00
2945;DHT22;1482;51.398;7.128;2022-10-26T11:30:19;22.50;1.00
2945;DHT22;1482;51.398;7.128;2022-10-26T11:32:52;22.50;1.00
2945;DHT22;1482;51.398;7.128;2022-10-26T11:35:35;22.50;1.00
2945;DHT22;1482;51.398;7.128;2022-10-26T11:43:47;22.60;1.00
2945;DHT22;1482;51.398;7.128;2022-10-26T11:46:21;22.60;1.00
2945;DHT22;1482;51.398;7.128;2022-10-26T11:48:59;22.50;1.00
2945;DHT22;1482;51.398;7.128;2022-10-26T11:51:58;22.50;1.00
2945;DHT22;1482;51.398;7.128;2022-10-26T11:54:40;22.60;1.00
2945;DHT22;1482;51.398;7.128;2022-10-26T11:57:08;22.70;1.00
2945;DHT22;1482;51.398;7.128;2022-10-26T11:59:41;22.60;1.00
2945;DHT22;1482;51.398;7.128;2022-10-26T12:02:22;22.70;1.00
2945;DHT22;1482;51.398;7.128;2022-10-26T12:07:30;22.90;1.00
2945;DHT22;1482;51.398;7.128;2022-10-26T12:09:57;23.00;1.00
2945;DHT22;1482;51.398;7.128;2022-10-26T12:15:40;23.10;1.00
2945;DHT22;1482;51.398;7.128;2022-10-26T12:18:31;23.10;1.00
2945;DHT22;1482;51.398;7.128;2022-10-26T12:21:03;22.90;1.00
2945;DHT22;1482;51.398;7.128;2022-10-26T12:23:34;22.80;1.00
2945;DHT22;1482;51.398;7.128;2022-10-26T12:28:48;22.60;1.00
2945;DHT22;1482;51.398;7.128;2022-10-26T12:34:00;22.60;1.00
2945;DHT22;1482;51.398;7.128;2022-10-26T12:39:37;22.80;1.00
2945;DHT22;1482;51.398;7.128;2022-10-26T12:47:03;22.80;1.00
2945;DHT22;1482;51.398;7.128;2022-10-26T12:50:00;22.90;1.00
2945;DHT22;1482;51.398;7.128;2022-10-26T13:00:23;22.50;1.00
2945;DHT22;1482;51.398;7.128;2022-10-26T13:08:23;22.30;1.00
2945;DHT22;1482;51.398;7.128;2022-10-26T13:11:06;22.30;1.00
2945;DHT22;1482;51.398;7.128;2022-10-26T13:13:38;22.30;1.00
2945;DHT22;1482;51.398;7.128;2022-10-26T13:16:04;22.40;1.00
2945;DHT22;1482;51.398;7.128;2022-10-26T13:18:43;22.40;1.00
2945;DHT22;1482;51.398;7.128;2022-10-26T13:21:14;22.50;1.00
2945;DHT22;1482;51.398;7.128;2022-10-26T13:23:48;22.50;1.00
2945;DHT22;1482;51.398;7.128;2022-10-26T13:26:23;22.50;1.00
2945;DHT22;1482;51.398;7.128;2022-10-26T13:28:52;22.50;1.00
2945;DHT22;1482;51.398;7.128;2022-10-26T13:33:56;22.50;1.00
2945;DHT22;1482;51.398;7.128;2022-10-26T13:36:35;22.50;1.00
2945;DHT22;1482;51.398;7.128;2022-10-26T13:39:13;22.40;1.00
2945;DHT22;1482;51.398;7.128;2022-10-26T13:41:41;22.50;1.00
2945;DHT22;1482;51.398;7.128;2022-10-26T13:47:04;22.50;1.00
2945;DHT22;1482;51.398;7.128;2022-10-26T13:49:37;22.60;1.00
2945;DHT22;1482;51.398;7.128;2022-10-26T13:52:05;22.60;1.00
2945;DHT22;1482;51.398;7.128;2022-10-26T13:54:47;22.70;1.00
2945;DHT22;1482;51.398;7.128;2022-10-26T13:57:37;22.70;1.00
2945;DHT22;1482;51.398;7.128;2022-10-26T14:00:28;22.80;1.00
2945;DHT22;1482;51.398;7.128;2022-10-26T14:02:53;22.80;1.00
2945;DHT22;1482;51.398;7.128;2022-10-26T14:05:20;22.80;1.00
2945;DHT22;1482;51.398;7.128;2022-10-26T14:07:52;22.60;1.00
2945;DHT22;1482;51.398;7.128;2022-10-26T14:10:35;22.50;1.00
2945;DHT22;1482;51.398;7.128;2022-10-26T14:13:06;22.40;1.00
2945;DHT22;1482;51.398;7.128;2022-10-26T14:15:34;22.30;1.00
2945;DHT22;1482;51.398;7.128;2022-10-26T14:18:01;22.40;1.00
2945;DHT22;1482;51.398;7.128;2022-10-26T14:20:29;22.40;1.00
2945;DHT22;1482;51.398;7.128;2022-10-26T14:22:55;22.40;1.00
2945;DHT22;1482;51.398;7.128;2022-10-26T14:27:47;22.30;1.00
2945;DHT22;1482;51.398;7.128;2022-10-26T14:30:28;22.40;1.00
2945;DHT22;1482;51.398;7.128;2022-10-26T14:32:54;22.30;1.00
2945;DHT22;1482;51.398;7.128;2022-10-26T14:35:23;22.20;1.00
2945;DHT22;1482;51.398;7.128;2022-10-26T14:37:59;22.20;1.00
2945;DHT22;1482;51.398;7.128;2022-10-26T14:40:29;22.10;1.00
2945;DHT22;1482;51.398;7.128;2022-10-26T14:42:57;21.80;1.00
2945;DHT22;1482;51.398;7.128;2022-10-26T14:47:52;21.80;1.00
2945;DHT22;1482;51.398;7.128;2022-10-26T14:50:22;21.80;1.00
2945;DHT22;1482;51.398;7.128;2022-10-26T14:52:53;21.80;1.00
2945;DHT22;1482;51.398;7.128;2022-10-26T14:55:21;21.60;1.00
2945;DHT22;1482;51.398;7.128;2022-10-26T14:57:51;21.60;1.00
2945;DHT22;1482;51.398;7.128;2022-10-26T15:02:51;21.50;1.00
2945;DHT22;1482;51.398;7.128;2022-10-26T15:07:50;21.30;1.00
2945;DHT22;1482;51.398;7.128;2022-10-26T15:13:31;21.00;1.00
2945;DHT22;1482;51.398;7.128;2022-10-26T15:16:21;21.10;1.00
2945;DHT22;1482;51.398;7.128;2022-10-26T15:19:22;21.00;1.00
2945;DHT22;1482;51.398;7.128;2022-10-26T15:21:46;21.00;1.00
2945;DHT22;1482;51.398;7.128;2022-10-26T15:24:32;21.00;1.00
2945;DHT22;1482;51.398;7.128;2022-10-26T15:27:00;20.90;1.00
2945;DHT22;1482;51.398;7.128;2022-10-26T15:29:34;20.80;1.00
2945;DHT22;1482;51.398;7.128;2022-10-26T15:32:01;20.70;1.00
2945;DHT22;1482;51.398;7.128;2022-10-26T15:34:27;20.60;1.00
2945;DHT22;1482;51.398;7.128;2022-10-26T15:36:52;20.60;1.00
2945;DHT22;1482;51.398;7.128;2022-10-26T15:39:18;20.50;1.00
2945;DHT22;1482;51.398;7.128;2022-10-26T15:41:45;20.40;1.00
2945;DHT22;1482;51.398;7.128;2022-10-26T15:44:15;20.40;1.00
2945;DHT22;1482;51.398;7.128;2022-10-26T15:46:42;20.30;1.00
2945;DHT22;1482;51.398;7.128;2022-10-26T15:49:14;20.20;1.00
2945;DHT22;1482;51.398;7.128;2022-10-26T15:51:40;20.20;1.00
2945;DHT22;1482;51.398;7.128;2022-10-26T15:54:08;20.10;1.00
2945;DHT22;1482;51.398;7.128;2022-10-26T15:56:35;20.00;1.00
2945;DHT22;1482;51.398;7.128;2022-10-26T15:59:00;19.90;1.00
2945;DHT22;1482;51.398;7.128;2022-10-26T16:01:27;19.90;1.00
2945;DHT22;1482;51.398;7.128;2022-10-26T16:03:53;19.70;1.00
2945;DHT22;1482;51.398;7.128;2022-10-26T16:06:26;19.70;1.00
2945;DHT22;1482;51.398;7.128;2022-10-26T16:08:54;19.60;1.00
2945;DHT22;1482;51.398;7.128;2022-10-26T16:11:21;19.50;1.00
2945;DHT22;1482;51.398;7.128;2022-10-26T16:13:47;19.50;1.00
2945;DHT22;1482;51.398;7.128;2022-10-26T16:16:15;19.40;1.00
2945;DHT22;1482;51.398;7.128;2022-10-26T16:18:40;19.30;1.00
2945;DHT22;1482;51.398;7.128;2022-10-26T16:21:14;19.30;1.00
2945;DHT22;1482;51.398;7.128;2022-10-26T16:23:40;19.30;1.00
2945;DHT22;1482;51.398;7.128;2022-10-26T16:26:06;19.30;1.00
2945;DHT22;1482;51.398;7.128;2022-10-26T16:28:33;19.20;1.00
2945;DHT22;1482;51.398;7.128;2022-10-26T16:31:04;19.20;1.00
2945;DHT22;1482;51.398;7.128;2022-10-26T16:33:29;19.10;1.00
2945;DHT22;1482;51.398;7.128;2022-10-26T16:35:56;19.10;1.00
2945;DHT22;1482;51.398;7.128;2022-10-26T16:38:22;19.10;1.00
2945;DHT22;1482;51.398;7.128;2022-10-26T16:40:48;19.00;1.00
2945;DHT22;1482;51.398;7.128;2022-10-26T16:43:13;19.00;1.00
2945;DHT22;1482;51.398;7.128;2022-10-26T16:45:39;18.90;1.00
2945;DHT22;1482;51.398;7.128;2022-10-26T16:48:07;18.90;1.00
2945;DHT22;1482;51.398;7.128;2022-10-26T16:50:38;18.80;1.00
2945;DHT22;1482;51.398;7.128;2022-10-26T16:53:04;18.80;1.00
2945;DHT22;1482;51.398;7.128;2022-10-26T16:55:30;18.70;1.00
2945;DHT22;1482;51.398;7.128;2022-10-26T16:57:55;18.60;1.00
2945;DHT22;1482;51.398;7.128;2022-10-26T17:00:21;18.50;1.00
2945;DHT22;1482;51.398;7.128;2022-10-26T17:02:46;18.50;1.00
2945;DHT22;1482;51.398;7.128;2022-10-26T17:05:12;18.40;1.00
2945;DHT22;1482;51.398;7.128;2022-10-26T17:07:37;18.40;1.00
2945;DHT22;1482;51.398;7.128;2022-10-26T17:10:03;18.20;1.00
2945;DHT22;1482;51.398;7.128;2022-10-26T17:12:29;18.20;1.00
2945;DHT22;1482;51.398;7.128;2022-10-26T17:14:55;18.20;1.00
2945;DHT22;1482;51.398;7.128;2022-10-26T17:17:22;18.10;1.00
2945;DHT22;1482;51.398;7.128;2022-10-26T17:19:48;18.10;1.00
2945;DHT22;1482;51.398;7.128;2022-10-26T17:22:14;18.10;1.00
2945;DHT22;1482;51.398;7.128;2022-10-26T17:24:39;18.10;1.00
2945;DHT22;1482;51.398;7.128;2022-10-26T17:27:05;18.10;1.00
2945;DHT22;1482;51.398;7.128;2022-10-26T17:29:30;18.00;1.00
2945;DHT22;1482;51.398;7.128;2022-10-26T17:31:56;18.00;1.00
2945;DHT22;1482;51.398;7.128;2022-10-26T17:34:22;17.90;1.00
2945;DHT22;1482;51.398;7.128;2022-10-26T17:36:47;17.90;1.00
2945;DHT22;1482;51.398;7.128;2022-10-26T17:39:13;17.90;1.00
2945;DHT22;1482;51.398;7.128;2022-10-26T17:41:38;18.00;1.00
2945;DHT22;1482;51.398;7.128;2022-10-26T17:44:04;18.00;1.00
2945;DHT22;1482;51.398;7.128;2022-10-26T17:46:29;18.00;1.00
2945;DHT22;1482;51.398;7.128;2022-10-26T17:48:56;18.00;1.00
2945;DHT22;1482;51.398;7.128;2022-10-26T17:51:23;18.10;1.00
2945;DHT22;1482;51.398;7.128;2022-10-26T17:53:49;18.10;1.00
2945;DHT22;1482;51.398;7.128;2022-10-26T17:56:20;18.10;1.00
2945;DHT22;1482;51.398;7.128;2022-10-26T17:58:53;18.10;1.00
2945;DHT22;1482;51.398;7.128;2022-10-26T18:01:19;18.20;1.00
2945;DHT22;1482;51.398;7.128;2022-10-26T18:03:44;18.10;1.00
2945;DHT22;1482;51.398;7.128;2022-10-26T18:06:10;18.10;1.00
2945;DHT22;1482;51.398;7.128;2022-10-26T18:08:37;18.10;1.00
2945;DHT22;1482;51.398;7.128;2022-10-26T18:11:04;18.10;1.00
2945;DHT22;1482;51.398;7.128;2022-10-26T18:13:31;18.00;1.00
2945;DHT22;1482;51.398;7.128;2022-10-26T18:16:05;18.10;1.00
2945;DHT22;1482;51.398;7.128;2022-10-26T18:18:31;18.00;1.00
2945;DHT22;1482;51.398;7.128;2022-10-26T18:21:08;18.00;1.00
2945;DHT22;1482;51.398;7.128;2022-10-26T18:23:34;17.90;1.00
2945;DHT22;1482;51.398;7.128;2022-10-26T18:26:01;17.90;1.00
2945;DHT22;1482;51.398;7.128;2022-10-26T18:28:27;17.90;1.00
2945;DHT22;1482;51.398;7.128;2022-10-26T18:30:52;17.80;1.00
2945;DHT22;1482;51.398;7.128;2022-10-26T18:33:18;17.80;1.00
2945;DHT22;1482;51.398;7.128;2022-10-26T18:35:43;17.80;1.00
2945;DHT22;1482;51.398;7.128;2022-10-26T18:38:10;17.70;1.00
2945;DHT22;1482;51.398;7.128;2022-10-26T18:40:36;17.80;1.00